createdAt,value
2023-02-15T00:00:12.154Z,38.58
2023-02-15T00:02:42.450Z,41.97
2023-02-15T00:05:10.217Z,44.17
2023-02-15T00:07:37.416Z,43.30
2023-02-15T00:10:06.276Z,36.35
2023-02-15T00:12:33.790Z,48.03
2023-02-15T00:15:00.993Z,42.60
2023-02-15T00:17:31.260Z,47.20
2023-02-15T00:19:58.479Z,45.72
2023-02-15T00:22:26.967Z,47.13
2023-02-15T00:24:54.052Z,42.63
2023-02-15T00:27:24.488Z,47.15
2023-02-15T00:29:51.988Z,37.00
2023-02-15T00:32:19.149Z,41.92
2023-02-15T00:34:46.282Z,44.53
2023-02-15T00:37:13.394Z,37.58
2023-02-15T00:39:40.592Z,43.57
2023-02-15T00:42:07.759Z,40.10
2023-02-15T00:44:35.202Z,36.93
2023-02-15T00:47:02.389Z,37.47
2023-02-15T00:49:29.515Z,40.80
2023-02-15T00:51:56.701Z,41.30
2023-02-15T00:54:23.809Z,42.57
2023-02-15T00:56:51.023Z,41.53
2023-02-15T00:59:18.238Z,42.37
2023-02-15T01:01:45.563Z,40.47
2023-02-15T01:04:12.914Z,44.83
2023-02-15T01:06:40.097Z,39.90
2023-02-15T01:09:07.333Z,42.65
2023-02-15T01:11:34.479Z,44.23
2023-02-15T01:14:01.631Z,46.13
2023-02-15T01:16:29.967Z,42.77
2023-02-15T01:18:57.594Z,40.57
2023-02-15T01:21:26.768Z,42.43
2023-02-15T01:23:54.279Z,43.50
2023-02-15T01:26:24.578Z,43.90
2023-02-15T01:28:51.902Z,46.20
2023-02-15T01:31:22.536Z,42.50
2023-02-15T01:33:53.112Z,45.00
2023-02-15T01:36:20.347Z,41.50
2023-02-15T01:38:47.765Z,45.97
2023-02-15T01:41:21.280Z,42.77
2023-02-15T01:43:53.047Z,40.10
2023-02-15T01:46:41.440Z,41.97
2023-02-15T01:49:21.873Z,38.37
2023-02-15T01:51:53.927Z,43.50
2023-02-15T01:54:33.700Z,42.60
2023-02-15T01:57:31.951Z,39.27
2023-02-15T02:00:03.531Z,41.50
2023-02-15T02:02:30.858Z,42.50
2023-02-15T02:05:07.532Z,40.13
2023-02-15T02:07:40.761Z,35.07
2023-02-15T02:10:15.963Z,40.90
2023-02-15T02:12:46.243Z,36.30
2023-02-15T02:15:14.944Z,34.80
2023-02-15T02:17:57.537Z,31.93
2023-02-15T02:20:41.852Z,33.37
2023-02-15T02:23:26.908Z,38.83
2023-02-15T02:26:38.938Z,34.63
2023-02-15T02:29:37.075Z,35.03
2023-02-15T02:32:26.060Z,32.17
2023-02-15T02:35:17.127Z,36.50
2023-02-15T02:38:05.520Z,37.73
2023-02-15T02:41:29.418Z,32.30
2023-02-15T02:44:10.375Z,36.43
2023-02-15T02:47:30.784Z,34.23
2023-02-15T02:50:10.750Z,32.90
2023-02-15T02:52:50.962Z,40.97
2023-02-15T02:55:27.023Z,38.10
2023-02-15T02:58:28.964Z,38.57
2023-02-15T03:01:33.352Z,35.97
2023-02-15T03:04:09.980Z,37.50
2023-02-15T03:07:05.779Z,38.30
2023-02-15T03:09:43.854Z,38.13
2023-02-15T03:12:22.685Z,35.97
2023-02-15T03:15:08.246Z,36.00
2023-02-15T03:17:42.456Z,35.20
2023-02-15T03:20:17.460Z,40.37
2023-02-15T03:22:53.943Z,46.53
2023-02-15T03:25:30.841Z,39.00
2023-02-15T03:28:06.161Z,38.00
2023-02-15T03:30:39.320Z,34.63
2023-02-15T03:33:08.796Z,38.47
2023-02-15T03:36:08.198Z,43.72
2023-02-15T03:39:09.554Z,38.70
2023-02-15T03:41:49.430Z,39.00
2023-02-15T03:44:58.103Z,34.83
2023-02-15T03:47:37.318Z,36.13
2023-02-15T03:50:49.733Z,35.60
2023-02-15T03:53:24.470Z,42.83
2023-02-15T03:55:55.749Z,38.03
2023-02-15T03:58:41.718Z,35.53
2023-02-15T04:02:09.837Z,36.43
2023-02-15T04:04:47.385Z,37.50
2023-02-15T04:07:14.809Z,38.57
2023-02-15T04:10:00.728Z,36.47
2023-02-15T04:12:27.876Z,39.30
2023-02-15T04:15:13.929Z,39.10
2023-02-15T04:17:41.136Z,35.17
2023-02-15T04:20:28.648Z,37.93
2023-02-15T04:23:14.627Z,35.87
2023-02-15T04:25:41.951Z,36.50
2023-02-15T04:28:09.199Z,33.67
2023-02-15T04:30:36.558Z,34.30
2023-02-15T04:33:03.811Z,38.17
2023-02-15T04:35:32.678Z,35.63
2023-02-15T04:38:03.679Z,37.00
2023-02-15T04:40:30.982Z,39.30
2023-02-15T04:42:58.105Z,37.47
2023-02-15T04:45:25.336Z,38.97
2023-02-15T04:47:52.484Z,41.40
2023-02-15T04:50:19.832Z,36.10
2023-02-15T04:52:47.102Z,36.97
2023-02-15T04:55:15.358Z,36.00
2023-02-15T04:57:47.425Z,39.57
2023-02-15T05:00:15.025Z,38.57
2023-02-15T05:02:42.271Z,33.43
2023-02-15T05:05:10.544Z,37.30
2023-02-15T05:07:37.713Z,36.10
2023-02-15T05:10:05.617Z,32.53
2023-02-15T05:12:32.716Z,37.90
2023-02-15T05:15:03.195Z,37.20
2023-02-15T05:17:30.370Z,49.83
2023-02-15T05:19:57.618Z,37.93
2023-02-15T05:22:24.770Z,38.50
2023-02-15T05:25:11.153Z,39.50
2023-02-15T05:27:56.964Z,41.53
2023-02-15T05:30:24.251Z,38.10
2023-02-15T05:32:51.464Z,44.30
2023-02-15T05:35:22.133Z,39.57
2023-02-15T05:37:49.295Z,37.07
2023-02-15T05:40:16.654Z,35.23
2023-02-15T05:42:44.152Z,37.97
2023-02-15T05:45:14.527Z,37.27
2023-02-15T05:47:41.755Z,40.10
2023-02-15T05:50:09.897Z,36.17
2023-02-15T05:52:37.172Z,34.40
2023-02-15T05:55:06.320Z,43.33
2023-02-15T05:57:33.695Z,36.43
2023-02-15T06:00:00.930Z,39.33
2023-02-15T06:02:28.291Z,39.17
2023-02-15T06:04:55.418Z,35.97
2023-02-15T06:07:22.657Z,35.73
2023-02-15T06:09:53.385Z,35.07
2023-02-15T06:12:24.231Z,36.13
2023-02-15T06:14:51.434Z,37.20
2023-02-15T06:17:19.038Z,35.43
2023-02-15T06:19:46.224Z,36.10
2023-02-15T06:22:15.095Z,37.63
2023-02-15T06:24:45.103Z,33.43
2023-02-15T06:27:12.191Z,35.73
2023-02-15T06:29:39.708Z,34.17
2023-02-15T06:32:07.253Z,36.10
2023-02-15T06:34:34.681Z,34.50
2023-02-15T06:37:01.849Z,36.40
2023-02-15T06:39:29.067Z,38.60
2023-02-15T06:41:56.296Z,40.80
2023-02-15T06:44:23.604Z,38.80
2023-02-15T06:46:51.256Z,40.70
2023-02-15T06:49:18.838Z,42.43
2023-02-15T06:51:46.362Z,42.00
2023-02-15T06:54:13.477Z,41.13
2023-02-15T06:56:40.774Z,43.97
2023-02-15T06:59:11.517Z,44.17
2023-02-15T07:01:39.128Z,45.40
2023-02-15T07:04:06.426Z,43.90
2023-02-15T07:06:34.753Z,44.80
2023-02-15T07:09:02.590Z,47.47
2023-02-15T07:11:48.668Z,47.27
2023-02-15T07:14:16.159Z,48.80
2023-02-15T07:16:43.338Z,42.03
2023-02-15T07:19:13.484Z,48.77
2023-02-15T07:21:41.044Z,52.83
2023-02-15T07:24:08.820Z,53.70
2023-02-15T07:26:36.040Z,57.23
2023-02-15T07:29:03.259Z,53.90
2023-02-15T07:31:30.674Z,48.67
2023-02-15T07:33:57.801Z,53.30
2023-02-15T07:36:24.976Z,49.40
2023-02-15T07:38:52.043Z,49.50
2023-02-15T07:41:19.290Z,46.37
2023-02-15T07:43:46.824Z,54.00
2023-02-15T07:46:17.735Z,51.00
2023-02-15T07:48:48.591Z,54.70
2023-02-15T07:51:16.865Z,49.78
2023-02-15T07:53:44.805Z,50.55
2023-02-15T07:56:13.749Z,50.80
2023-02-15T07:58:52.481Z,50.03
2023-02-15T08:01:19.486Z,52.67
2023-02-15T08:03:46.677Z,46.00
2023-02-15T08:06:14.246Z,48.73
2023-02-15T08:08:42.916Z,46.90
2023-02-15T08:11:30.278Z,48.27
2023-02-15T08:14:12.337Z,43.38
2023-02-15T08:16:45.013Z,44.25
2023-02-15T08:19:24.847Z,41.50
2023-02-15T08:21:57.816Z,42.43
2023-02-15T08:24:32.227Z,44.30
2023-02-15T08:27:00.263Z,42.73
2023-02-15T08:29:29.678Z,41.43
2023-02-15T08:32:03.181Z,38.25
2023-02-15T08:34:34.041Z,37.97
2023-02-15T08:37:02.071Z,40.57
2023-02-15T08:39:29.927Z,40.70
2023-02-15T08:41:57.294Z,38.97
2023-02-15T08:44:24.646Z,40.97
2023-02-15T08:46:52.126Z,39.23
2023-02-15T08:49:23.314Z,49.17
2023-02-15T08:51:51.558Z,37.80
2023-02-15T08:54:22.748Z,43.30
2023-02-15T08:56:50.262Z,41.53
2023-02-15T08:59:23.269Z,44.33
2023-02-15T09:01:52.959Z,38.27
2023-02-15T09:04:21.905Z,38.10
2023-02-15T09:06:50.824Z,44.50
2023-02-15T09:09:19.828Z,46.10
2023-02-15T09:11:55.340Z,40.30
2023-02-15T09:14:28.297Z,38.80
2023-02-15T09:16:56.336Z,38.00
2023-02-15T09:19:25.087Z,43.37
2023-02-15T09:21:52.631Z,43.07
2023-02-15T09:24:22.818Z,40.83
2023-02-15T09:26:50.289Z,42.97
2023-02-15T09:29:19.426Z,39.03
2023-02-15T09:31:50.898Z,41.17
2023-02-15T09:34:21.537Z,44.83
2023-02-15T09:36:49.730Z,40.90
2023-02-15T09:39:30.535Z,45.07
2023-02-15T09:42:32.677Z,41.38
2023-02-15T09:45:29.972Z,39.60
2023-02-15T09:48:28.691Z,42.53
2023-02-15T09:51:24.974Z,45.23
2023-02-15T09:54:22.806Z,49.90
2023-02-15T09:57:11.492Z,46.63
2023-02-15T10:00:06.627Z,40.03
2023-02-15T10:02:50.563Z,41.27
2023-02-15T10:05:24.087Z,44.00
2023-02-15T10:08:15.744Z,45.33
2023-02-15T10:10:46.046Z,50.95
2023-02-15T10:13:46.397Z,49.53
2023-02-15T10:16:43.530Z,50.80
2023-02-15T10:19:33.185Z,45.75
2023-02-15T10:22:19.548Z,46.33
2023-02-15T10:25:27.723Z,43.42
2023-02-15T10:27:55.004Z,37.78
2023-02-15T10:31:11.462Z,41.75
2023-02-15T10:33:44.426Z,42.78
2023-02-15T10:36:36.228Z,39.97
2023-02-15T10:39:30.744Z,42.55
2023-02-15T10:42:33.364Z,41.00
2023-02-15T10:45:40.710Z,48.30
2023-02-15T10:48:56.797Z,42.67
2023-02-15T10:51:48.938Z,40.67
2023-02-15T10:54:30.985Z,39.60
2023-02-15T10:57:31.660Z,46.05
2023-02-15T11:00:39.937Z,40.37
2023-02-15T11:04:08.715Z,49.60
2023-02-15T11:06:40.842Z,40.43
2023-02-15T11:09:14.094Z,40.40
2023-02-15T11:11:44.726Z,44.15
2023-02-15T11:14:42.576Z,43.47
2023-02-15T11:17:21.034Z,39.67
2023-02-15T11:20:11.203Z,34.63
2023-02-15T11:22:39.452Z,38.83
2023-02-15T11:25:31.194Z,40.47
2023-02-15T11:28:11.339Z,43.00
2023-02-15T11:30:48.803Z,45.20
2023-02-15T11:33:37.151Z,37.95
2023-02-15T11:36:19.055Z,43.35
2023-02-15T11:38:48.655Z,41.33
2023-02-15T11:41:26.282Z,40.40
2023-02-15T11:44:38.314Z,42.35
2023-02-15T11:47:13.151Z,42.83
2023-02-15T11:49:40.815Z,42.38
2023-02-15T11:52:15.832Z,46.22
2023-02-15T11:54:52.859Z,47.97
2023-02-15T11:57:37.657Z,42.15
2023-02-15T12:00:25.382Z,47.95
2023-02-15T12:02:56.273Z,48.88
2023-02-15T12:05:26.193Z,43.13
2023-02-15T12:08:09.531Z,51.45
2023-02-15T12:10:45.112Z,45.13
2023-02-15T12:13:21.307Z,48.33
2023-02-15T12:15:53.521Z,51.08
2023-02-15T12:18:39.973Z,51.65
2023-02-15T12:21:27.800Z,45.30
2023-02-15T12:24:05.023Z,43.08
2023-02-15T12:26:36.655Z,43.33
2023-02-15T12:29:17.510Z,46.70
2023-02-15T12:31:52.835Z,46.63
2023-02-15T12:34:27.984Z,46.42
2023-02-15T12:37:01.343Z,46.75
2023-02-15T12:39:31.052Z,44.40
2023-02-15T12:42:05.773Z,51.15
2023-02-15T12:44:38.132Z,46.53
2023-02-15T12:47:17.232Z,46.00
2023-02-15T12:49:48.626Z,51.53
2023-02-15T12:52:21.618Z,47.03
2023-02-15T12:54:50.381Z,47.70
2023-02-15T12:57:29.374Z,48.63
2023-02-15T13:00:04.638Z,48.17
2023-02-15T13:02:51.066Z,50.80
2023-02-15T13:05:39.616Z,48.30
2023-02-15T13:08:29.501Z,49.55
2023-02-15T13:11:07.544Z,48.20
2023-02-15T13:13:57.083Z,53.83
2023-02-15T13:19:28.835Z,51.13
2023-02-15T13:22:03.176Z,55.40
2023-02-15T13:24:48.875Z,49.05
2023-02-15T13:27:22.388Z,44.95
2023-02-15T13:30:00.522Z,44.70
2023-02-15T13:32:41.893Z,46.03
2023-02-15T13:35:17.732Z,45.53
2023-02-15T13:41:05.081Z,43.58
2023-02-15T13:43:43.605Z,47.20
2023-02-15T13:46:45.909Z,43.65
2023-02-15T13:49:50.657Z,48.42
2023-02-15T13:52:25.575Z,52.85
2023-02-15T13:58:19.764Z,45.97
2023-02-15T14:01:16.872Z,50.72
2023-02-15T14:04:24.687Z,41.92
2023-02-15T14:07:13.757Z,47.92
2023-02-15T14:10:30.973Z,47.42
2023-02-15T14:13:13.871Z,42.83
2023-02-15T14:15:51.671Z,45.35
2023-02-15T14:18:55.548Z,43.78
2023-02-15T14:21:37.854Z,45.80
2023-02-15T14:24:36.959Z,45.70
2023-02-15T14:27:19.139Z,55.80
2023-02-15T14:30:06.142Z,48.77
2023-02-15T14:33:33.238Z,46.70
2023-02-15T14:36:05.026Z,47.70
2023-02-15T14:38:56.860Z,47.08
2023-02-15T14:41:54.778Z,52.53
2023-02-15T14:44:38.864Z,50.38
2023-02-15T14:47:27.386Z,53.55
2023-02-15T14:49:54.698Z,42.25
2023-02-15T14:52:22.118Z,52.05
2023-02-15T14:54:49.118Z,52.92
2023-02-15T14:57:16.220Z,49.00
2023-02-15T15:00:01.230Z,49.90
2023-02-15T15:02:51.583Z,44.13
2023-02-15T15:05:33.417Z,50.10
2023-02-15T15:08:02.550Z,47.63
2023-02-15T15:10:44.364Z,51.13
2023-02-15T15:13:33.495Z,50.83
2023-02-15T15:16:52.732Z,51.08
2023-02-15T15:19:52.266Z,51.92
2023-02-15T15:22:25.964Z,50.20
2023-02-15T15:25:02.966Z,52.40
2023-02-15T15:27:55.318Z,50.67
2023-02-15T15:30:22.486Z,50.65
2023-02-15T15:32:56.232Z,49.30
2023-02-15T15:35:45.963Z,55.10
2023-02-15T15:38:49.349Z,49.63
2023-02-15T15:41:51.016Z,55.17
2023-02-15T15:45:40.443Z,50.83
2023-02-15T15:48:34.489Z,55.13
2023-02-15T15:51:34.501Z,49.75
2023-02-15T15:54:04.931Z,49.42
2023-02-15T15:56:36.935Z,54.83
2023-02-15T15:59:15.795Z,50.30
2023-02-15T16:01:46.582Z,52.85
2023-02-15T16:04:35.261Z,56.83
2023-02-15T16:07:19.615Z,51.92
2023-02-15T16:09:59.041Z,47.25
2023-02-15T16:12:34.258Z,54.42
2023-02-15T16:15:44.140Z,50.72
2023-02-15T16:18:18.338Z,55.03
2023-02-15T16:21:01.457Z,60.10
2023-02-15T16:24:05.641Z,51.10
2023-02-15T16:26:48.063Z,49.20
2023-02-15T16:29:18.277Z,56.05
2023-02-15T16:32:03.600Z,55.15
2023-02-15T16:34:34.478Z,56.42
2023-02-15T16:37:21.284Z,59.03
2023-02-15T16:39:49.747Z,52.13
2023-02-15T16:42:20.565Z,54.15
2023-02-15T16:45:07.364Z,48.40
2023-02-15T16:47:42.342Z,46.37
2023-02-15T16:50:39.386Z,55.63
2023-02-15T16:53:17.976Z,54.20
2023-02-15T16:55:53.897Z,52.57
2023-02-15T16:58:42.758Z,52.57
2023-02-15T17:01:15.021Z,56.22
2023-02-15T17:03:51.699Z,58.83
2023-02-15T17:06:30.791Z,50.87
2023-02-15T17:09:20.719Z,54.33
2023-02-15T17:11:57.855Z,55.73
2023-02-15T17:14:43.574Z,57.03
2023-02-15T17:17:16.276Z,56.38
2023-02-15T17:19:55.191Z,50.27
2023-02-15T17:22:30.880Z,63.13
2023-02-15T17:27:38.209Z,51.97
2023-02-15T17:30:20.569Z,60.77
2023-02-15T17:32:59.211Z,52.38
2023-02-15T17:35:34.325Z,48.73
2023-02-15T17:38:22.482Z,50.90
2023-02-15T17:40:51.530Z,61.17
2023-02-15T17:43:20.761Z,50.30
2023-02-15T17:45:53.237Z,57.37
2023-02-15T17:48:34.272Z,58.08
2023-02-15T17:51:13.850Z,55.30
2023-02-15T17:54:11.798Z,58.17
2023-02-15T17:56:41.140Z,56.63
2023-02-15T17:59:12.999Z,53.90
2023-02-15T18:02:10.062Z,57.77
2023-02-15T18:07:50.032Z,54.77
2023-02-15T18:10:38.428Z,62.83
2023-02-15T18:13:08.333Z,57.43
2023-02-15T18:15:38.489Z,65.67
2023-02-15T18:18:13.568Z,62.77
2023-02-15T18:20:44.249Z,61.83
2023-02-15T18:23:15.580Z,63.47
2023-02-15T18:25:48.550Z,57.57
2023-02-15T18:28:23.713Z,61.10
2023-02-15T18:30:53.439Z,55.53
2023-02-15T18:33:43.174Z,58.93
2023-02-15T18:36:26.129Z,62.33
2023-02-15T18:38:56.066Z,62.53
2023-02-15T18:41:25.196Z,59.83
2023-02-15T18:43:57.774Z,62.07
2023-02-15T18:46:31.140Z,56.87
2023-02-15T18:49:00.245Z,59.10
2023-02-15T18:51:30.426Z,57.93
2023-02-15T18:54:00.119Z,65.40
2023-02-15T18:56:29.032Z,64.50
2023-02-15T18:58:58.067Z,64.30
2023-02-15T19:01:29.286Z,68.93
2023-02-15T19:03:59.107Z,57.10
2023-02-15T19:06:28.005Z,67.80
2023-02-15T19:08:59.503Z,58.77
2023-02-15T19:11:29.692Z,64.80
2023-02-15T19:14:00.529Z,62.07
2023-02-15T19:16:50.310Z,67.77
2023-02-15T19:19:19.269Z,62.57
2023-02-15T19:21:49.344Z,71.43
2023-02-15T19:24:29.835Z,68.77
2023-02-15T19:27:00.132Z,69.43
2023-02-15T19:29:31.327Z,65.03
2023-02-15T19:32:02.421Z,70.93
2023-02-15T19:34:34.195Z,69.80
2023-02-15T19:37:04.865Z,79.47
2023-02-15T19:39:43.248Z,76.53
2023-02-15T19:42:18.462Z,83.30
2023-02-15T19:44:50.764Z,77.03
2023-02-15T19:47:20.331Z,71.07
2023-02-15T19:49:50.100Z,80.67
2023-02-15T19:52:26.428Z,75.93
2023-02-15T19:54:56.651Z,73.00
2023-02-15T19:57:29.636Z,85.30
2023-02-15T20:00:01.643Z,84.97
2023-02-15T20:02:34.382Z,75.55
2023-02-15T20:05:04.642Z,79.80
2023-02-15T20:07:34.236Z,85.13
2023-02-15T20:10:06.023Z,82.53
2023-02-15T20:12:35.986Z,77.67
2023-02-15T20:15:30.526Z,78.53
2023-02-15T20:18:07.816Z,89.47
2023-02-15T20:20:42.448Z,79.63
2023-02-15T20:23:38.201Z,83.00
2023-02-15T20:26:21.214Z,84.53
2023-02-15T20:28:49.968Z,86.53
2023-02-15T20:31:26.252Z,89.67
2023-02-15T20:33:55.377Z,95.00
2023-02-15T20:36:25.478Z,90.67
2023-02-15T20:38:54.199Z,88.67
2023-02-15T20:41:39.557Z,87.73
2023-02-15T20:44:29.553Z,86.90
2023-02-15T20:47:00.852Z,92.17
2023-02-15T20:49:29.836Z,81.90
2023-02-15T20:51:59.262Z,86.70
2023-02-15T20:54:37.897Z,77.40
2023-02-15T20:57:08.117Z,76.00
2023-02-15T20:59:42.469Z,77.37
2023-02-15T21:02:25.444Z,72.87
2023-02-15T21:04:55.605Z,78.07
2023-02-15T21:07:28.483Z,85.57
2023-02-15T21:09:59.119Z,82.50
2023-02-15T21:12:29.429Z,82.93
2023-02-15T21:15:00.523Z,79.80
2023-02-15T21:17:29.152Z,76.37
2023-02-15T21:19:56.981Z,77.27
2023-02-15T21:22:26.468Z,82.93
2023-02-15T21:24:55.146Z,86.10
2023-02-15T21:27:23.302Z,81.23
2023-02-15T21:29:54.950Z,71.17
2023-02-15T21:32:22.764Z,80.83
2023-02-15T21:34:51.088Z,79.57
2023-02-15T21:37:35.845Z,77.93
2023-02-15T21:40:07.086Z,72.40
2023-02-15T21:42:56.048Z,67.17
2023-02-15T21:45:42.914Z,71.55
2023-02-15T21:48:10.885Z,75.60
2023-02-15T21:50:57.578Z,73.77
2023-02-15T21:53:46.889Z,69.43
2023-02-15T21:56:22.461Z,74.50
2023-02-15T22:01:24.944Z,78.63
2023-02-15T22:03:55.207Z,70.53
2023-02-15T22:06:23.466Z,77.97
2023-02-15T22:08:50.712Z,79.23
2023-02-15T22:11:24.389Z,78.37
2023-02-15T22:13:51.878Z,73.27
2023-02-15T22:16:23.251Z,77.30
2023-02-15T22:18:50.875Z,80.53
2023-02-15T22:21:19.264Z,82.93
2023-02-15T22:23:47.322Z,83.40
2023-02-15T22:26:25.511Z,76.97
2023-02-15T22:28:53.359Z,78.20
2023-02-15T22:31:23.453Z,90.93
2023-02-15T22:33:51.358Z,86.07
2023-02-15T22:36:30.761Z,77.53
2023-02-15T22:38:58.462Z,82.37
2023-02-15T22:41:31.258Z,81.90
2023-02-15T22:43:58.791Z,76.93
2023-02-15T22:46:26.568Z,71.53
2023-02-15T22:48:54.162Z,78.50
2023-02-15T22:51:24.551Z,82.83
2023-02-15T22:53:54.683Z,88.50
2023-02-15T22:56:31.442Z,82.17
2023-02-15T22:59:05.811Z,75.03
2023-02-15T23:01:36.767Z,84.43
2023-02-15T23:04:04.432Z,84.67
2023-02-15T23:06:34.340Z,86.07
2023-02-15T23:09:01.605Z,81.23
2023-02-15T23:11:29.217Z,86.13
2023-02-15T23:13:56.474Z,81.93
2023-02-15T23:16:23.687Z,83.57
2023-02-15T23:18:51.171Z,86.27
2023-02-15T23:21:35.830Z,82.47
2023-02-15T23:24:26.189Z,89.03
2023-02-15T23:26:54.332Z,82.47
2023-02-15T23:29:23.910Z,75.97
2023-02-15T23:31:54.721Z,83.40
2023-02-15T23:34:29.229Z,87.63
2023-02-15T23:36:57.102Z,81.73
2023-02-15T23:39:47.287Z,80.17
2023-02-15T23:42:23.289Z,80.57
2023-02-15T23:44:54.243Z,79.40
2023-02-15T23:47:42.163Z,80.47
2023-02-15T23:50:23.114Z,80.77
2023-02-15T23:52:52.713Z,69.30
2023-02-15T23:55:20.316Z,81.17
2023-02-15T23:57:48.968Z,76.93
